sensor_id;sensor_type;location;lat;lon;timestamp;pressure;altitude;pressure_sealevel;temperature;humidity
71465;BME280;59274;49.874;9.154;2022-12-11T00:01:58;99867.97;;;-0.29;89.82
71465;BME280;59274;49.874;9.154;2022-12-11T00:04:24;99863.34;;;-0.46;90.35
71465;BME280;59274;49.874;9.154;2022-12-11T00:06:49;99864.91;;;-0.45;90.55
71465;BME280;59274;49.874;9.154;2022-12-11T00:09:17;99872.63;;;-0.44;90.38
71465;BME280;59274;49.874;9.154;2022-12-11T00:11:43;99876.94;;;-0.56;90.52
71465;BME280;59274;49.874;9.154;2022-12-11T00:14:08;99875.50;;;-0.62;91.02
71465;BME280;59274;49.874;9.154;2022-12-11T00:16:34;99879.44;;;-0.60;91.21
71465;BME280;59274;49.874;9.154;2022-12-11T00:18:59;99885.41;;;-0.54;91.31
71465;BME280;59274;49.874;9.154;2022-12-11T00:21:25;99880.88;;;-0.54;90.71
71465;BME280;59274;49.874;9.154;2022-12-11T00:23:50;99886.50;;;-0.55;90.31
71465;BME280;59274;49.874;9.154;2022-12-11T00:26:16;99885.25;;;-0.58;90.32
71465;BME280;59274;49.874;9.154;2022-12-11T00:28:43;99888.88;;;-0.54;90.88
71465;BME280;59274;49.874;9.154;2022-12-11T00:31:13;99889.19;;;-0.55;92.07
71465;BME280;59274;49.874;9.154;2022-12-11T00:33:38;99883.28;;;-0.44;91.89
71465;BME280;59274;49.874;9.154;2022-12-11T00:36:13;99876.50;;;-0.50;91.02
71465;BME280;59274;49.874;9.154;2022-12-11T00:38:39;99882.31;;;-0.48;90.37
71465;BME280;59274;49.874;9.154;2022-12-11T00:41:05;99878.25;;;-0.45;90.62
71465;BME280;59274;49.874;9.154;2022-12-11T00:43:30;99886.91;;;-0.40;90.54
71465;BME280;59274;49.874;9.154;2022-12-11T00:45:56;99886.75;;;-0.34;90.12
71465;BME280;59274;49.874;9.154;2022-12-11T00:48:22;99883.59;;;-0.45;90.79
71465;BME280;59274;49.874;9.154;2022-12-11T00:50:48;99888.47;;;-0.38;90.08
71465;BME280;59274;49.874;9.154;2022-12-11T00:53:13;99891.72;;;-0.50;90.20
71465;BME280;59274;49.874;9.154;2022-12-11T00:55:41;99905.16;;;-0.55;91.32
71465;BME280;59274;49.874;9.154;2022-12-11T00:58:07;99901.56;;;-0.59;92.14
71465;BME280;59274;49.874;9.154;2022-12-11T01:00:33;99901.41;;;-0.54;93.25
71465;BME280;59274;49.874;9.154;2022-12-11T01:02:59;99904.03;;;-0.63;93.58
71465;BME280;59274;49.874;9.154;2022-12-11T01:05:27;99898.69;;;-0.63;94.25
71465;BME280;59274;49.874;9.154;2022-12-11T01:07:53;99897.44;;;-0.65;94.84
71465;BME280;59274;49.874;9.154;2022-12-11T01:10:18;99900.41;;;-0.67;95.00
71465;BME280;59274;49.874;9.154;2022-12-11T01:12:56;99902.66;;;-0.83;95.85
71465;BME280;59274;49.874;9.154;2022-12-11T01:15:24;99905.53;;;-0.79;95.67
71465;BME280;59274;49.874;9.154;2022-12-11T01:17:50;99902.94;;;-0.93;96.10
71465;BME280;59274;49.874;9.154;2022-12-11T01:20:16;99906.25;;;-0.87;96.42
71465;BME280;59274;49.874;9.154;2022-12-11T01:22:42;99903.94;;;-0.80;96.26
71465;BME280;59274;49.874;9.154;2022-12-11T01:25:08;99905.78;;;-0.89;96.35
71465;BME280;59274;49.874;9.154;2022-12-11T01:27:37;99909.28;;;-0.80;95.80
71465;BME280;59274;49.874;9.154;2022-12-11T01:30:05;99900.78;;;-0.82;94.81
71465;BME280;59274;49.874;9.154;2022-12-11T01:32:32;99902.00;;;-0.88;93.90
71465;BME280;59274;49.874;9.154;2022-12-11T01:34:58;99892.63;;;-0.86;93.55
71465;BME280;59274;49.874;9.154;2022-12-11T01:37:23;99898.25;;;-0.87;93.64
71465;BME280;59274;49.874;9.154;2022-12-11T01:39:49;99898.84;;;-0.90;93.66
71465;BME280;59274;49.874;9.154;2022-12-11T01:42:19;99897.06;;;-1.03;94.54
71465;BME280;59274;49.874;9.154;2022-12-11T01:47:10;99899.34;;;-1.10;95.66
71465;BME280;59274;49.874;9.154;2022-12-11T01:49:38;99890.34;;;-1.01;95.42
71465;BME280;59274;49.874;9.154;2022-12-11T01:52:18;99894.25;;;-0.98;94.61
71465;BME280;59274;49.874;9.154;2022-12-11T01:54:46;99897.72;;;-0.98;94.52
71465;BME280;59274;49.874;9.154;2022-12-11T01:57:14;99892.66;;;-1.08;94.94
71465;BME280;59274;49.874;9.154;2022-12-11T01:59:42;99897.53;;;-1.01;94.81
71465;BME280;59274;49.874;9.154;2022-12-11T02:02:19;99898.13;;;-1.04;94.44
71465;BME280;59274;49.874;9.154;2022-12-11T02:04:46;99900.50;;;-1.03;93.56
71465;BME280;59274;49.874;9.154;2022-12-11T02:07:13;99904.47;;;-1.00;93.53
71465;BME280;59274;49.874;9.154;2022-12-11T02:09:41;99908.56;;;-0.94;92.50
71465;BME280;59274;49.874;9.154;2022-12-11T02:17:25;99904.41;;;-0.78;91.07
71465;BME280;59274;49.874;9.154;2022-12-11T02:22:51;99897.84;;;-0.81;91.34
71465;BME280;59274;49.874;9.154;2022-12-11T02:28:18;99894.97;;;-0.84;91.97
71465;BME280;59274;49.874;9.154;2022-12-11T02:30:49;99894.75;;;-0.96;91.34
71465;BME280;59274;49.874;9.154;2022-12-11T02:33:18;99907.91;;;-1.00;91.65
71465;BME280;59274;49.874;9.154;2022-12-11T02:35:46;99904.44;;;-1.23;91.78
71465;BME280;59274;49.874;9.154;2022-12-11T02:38:31;99912.25;;;-1.26;92.90
71465;BME280;59274;49.874;9.154;2022-12-11T02:40:58;99908.41;;;-1.34;92.95
71465;BME280;59274;49.874;9.154;2022-12-11T02:43:26;99909.09;;;-1.28;92.67
71465;BME280;59274;49.874;9.154;2022-12-11T02:45:54;99914.22;;;-1.32;92.73
71465;BME280;59274;49.874;9.154;2022-12-11T02:48:22;99916.53;;;-1.39;92.76
71465;BME280;59274;49.874;9.154;2022-12-11T02:50:51;99918.56;;;-1.22;91.78
71465;BME280;59274;49.874;9.154;2022-12-11T02:53:21;99914.44;;;-1.28;92.14
71465;BME280;59274;49.874;9.154;2022-12-11T02:55:51;99914.00;;;-1.22;91.61
71465;BME280;59274;49.874;9.154;2022-12-11T02:58:29;99911.44;;;-1.27;92.30
71465;BME280;59274;49.874;9.154;2022-12-11T03:00:55;99911.34;;;-1.22;91.95
71465;BME280;59274;49.874;9.154;2022-12-11T03:03:21;99918.47;;;-1.31;92.21
71465;BME280;59274;49.874;9.154;2022-12-11T03:05:47;99917.31;;;-1.38;92.85
71465;BME280;59274;49.874;9.154;2022-12-11T03:08:12;99906.97;;;-1.17;92.84
71465;BME280;59274;49.874;9.154;2022-12-11T03:10:43;99910.97;;;-1.06;92.38
71465;BME280;59274;49.874;9.154;2022-12-11T03:13:11;99906.78;;;-0.99;91.51
71465;BME280;59274;49.874;9.154;2022-12-11T03:18:26;99902.94;;;-1.15;92.09
71465;BME280;59274;49.874;9.154;2022-12-11T03:23:27;99915.16;;;-0.92;93.31
71465;BME280;59274;49.874;9.154;2022-12-11T03:26:10;99904.75;;;-0.80;91.48
71465;BME280;59274;49.874;9.154;2022-12-11T03:31:04;99915.06;;;-0.78;91.58
71465;BME280;59274;49.874;9.154;2022-12-11T03:33:37;99909.28;;;-1.02;91.77
71465;BME280;59274;49.874;9.154;2022-12-11T03:36:12;99910.75;;;-0.96;92.39
71465;BME280;59274;49.874;9.154;2022-12-11T03:38:45;99913.41;;;-0.96;92.10
71465;BME280;59274;49.874;9.154;2022-12-11T03:41:14;99911.47;;;-1.04;92.08
71465;BME280;59274;49.874;9.154;2022-12-11T03:43:40;99910.97;;;-1.06;92.19
71465;BME280;59274;49.874;9.154;2022-12-11T03:46:06;99916.56;;;-0.94;92.23
71465;BME280;59274;49.874;9.154;2022-12-11T03:48:36;99920.44;;;-1.00;92.03
71465;BME280;59274;49.874;9.154;2022-12-11T03:51:04;99915.53;;;-1.07;92.99
71465;BME280;59274;49.874;9.154;2022-12-11T03:53:31;99911.66;;;-1.01;93.07
71465;BME280;59274;49.874;9.154;2022-12-11T03:55:59;99906.00;;;-0.99;93.80
71465;BME280;59274;49.874;9.154;2022-12-11T03:58:24;99901.16;;;-0.97;93.70
71465;BME280;59274;49.874;9.154;2022-12-11T04:00:50;99906.38;;;-1.14;94.56
71465;BME280;59274;49.874;9.154;2022-12-11T04:03:15;99901.41;;;-1.30;95.31
71465;BME280;59274;49.874;9.154;2022-12-11T04:05:47;99903.34;;;-1.22;95.66
71465;BME280;59274;49.874;9.154;2022-12-11T04:08:13;99910.06;;;-1.24;95.69
71465;BME280;59274;49.874;9.154;2022-12-11T04:10:39;99897.03;;;-1.26;95.88
71465;BME280;59274;49.874;9.154;2022-12-11T04:13:05;99898.28;;;-1.09;95.15
71465;BME280;59274;49.874;9.154;2022-12-11T04:15:31;99897.47;;;-1.10;95.33
71465;BME280;59274;49.874;9.154;2022-12-11T04:17:56;99896.75;;;-1.02;95.70
71465;BME280;59274;49.874;9.154;2022-12-11T04:20:40;99896.91;;;-0.98;95.47
71465;BME280;59274;49.874;9.154;2022-12-11T04:23:24;99899.72;;;-1.03;94.97
71465;BME280;59274;49.874;9.154;2022-12-11T04:26:11;99901.59;;;-1.04;94.13
71465;BME280;59274;49.874;9.154;2022-12-11T04:28:37;99900.28;;;-1.15;94.77
71465;BME280;59274;49.874;9.154;2022-12-11T04:31:03;99906.13;;;-1.04;95.29
71465;BME280;59274;49.874;9.154;2022-12-11T04:33:29;99904.25;;;-1.04;95.08
71465;BME280;59274;49.874;9.154;2022-12-11T04:35:58;99901.00;;;-1.01;94.60
71465;BME280;59274;49.874;9.154;2022-12-11T04:38:24;99906.00;;;-0.99;93.82
71465;BME280;59274;49.874;9.154;2022-12-11T04:40:56;99897.25;;;-1.00;93.93
71465;BME280;59274;49.874;9.154;2022-12-11T04:43:22;99900.38;;;-0.98;93.90
71465;BME280;59274;49.874;9.154;2022-12-11T04:45:47;99896.63;;;-0.97;94.20
71465;BME280;59274;49.874;9.154;2022-12-11T04:48:13;99892.09;;;-0.96;94.37
71465;BME280;59274;49.874;9.154;2022-12-11T04:50:41;99891.16;;;-0.92;93.92
71465;BME280;59274;49.874;9.154;2022-12-11T04:53:06;99893.97;;;-0.97;93.86
71465;BME280;59274;49.874;9.154;2022-12-11T04:55:32;99896.97;;;-0.90;93.93
71465;BME280;59274;49.874;9.154;2022-12-11T04:57:57;99896.81;;;-0.93;92.88
71465;BME280;59274;49.874;9.154;2022-12-11T05:00:23;99892.88;;;-0.96;92.57
71465;BME280;59274;49.874;9.154;2022-12-11T05:02:48;99894.38;;;-1.03;93.19
71465;BME280;59274;49.874;9.154;2022-12-11T05:05:14;99892.56;;;-0.94;93.09
71465;BME280;59274;49.874;9.154;2022-12-11T05:07:40;99888.81;;;-0.93;92.77
71465;BME280;59274;49.874;9.154;2022-12-11T05:10:05;99896.06;;;-0.85;92.13
71465;BME280;59274;49.874;9.154;2022-12-11T05:12:32;99886.16;;;-0.93;93.08
71465;BME280;59274;49.874;9.154;2022-12-11T05:14:57;99887.19;;;-1.03;92.82
71465;BME280;59274;49.874;9.154;2022-12-11T05:17:22;99879.97;;;-1.02;93.41
71465;BME280;59274;49.874;9.154;2022-12-11T05:19:49;99868.22;;;-1.01;93.71
71465;BME280;59274;49.874;9.154;2022-12-11T05:22:16;99864.41;;;-1.09;94.01
71465;BME280;59274;49.874;9.154;2022-12-11T05:24:42;99869.31;;;-1.02;94.53
71465;BME280;59274;49.874;9.154;2022-12-11T05:27:08;99871.75;;;-1.14;94.80
71465;BME280;59274;49.874;9.154;2022-12-11T05:29:37;99869.09;;;-1.14;94.84
71465;BME280;59274;49.874;9.154;2022-12-11T05:32:03;99866.06;;;-1.22;94.64
71465;BME280;59274;49.874;9.154;2022-12-11T05:34:29;99864.72;;;-1.10;95.15
71465;BME280;59274;49.874;9.154;2022-12-11T05:36:54;99859.53;;;-1.15;94.59
71465;BME280;59274;49.874;9.154;2022-12-11T05:39:19;99866.16;;;-1.27;93.83
71465;BME280;59274;49.874;9.154;2022-12-11T05:41:45;99864.00;;;-1.25;94.00
71465;BME280;59274;49.874;9.154;2022-12-11T05:44:11;99864.19;;;-1.21;94.01
71465;BME280;59274;49.874;9.154;2022-12-11T05:46:37;99872.00;;;-1.25;94.44
71465;BME280;59274;49.874;9.154;2022-12-11T05:49:03;99864.50;;;-1.23;94.49
71465;BME280;59274;49.874;9.154;2022-12-11T05:51:29;99881.00;;;-1.12;95.13
71465;BME280;59274;49.874;9.154;2022-12-11T05:53:55;99871.06;;;-1.20;95.26
71465;BME280;59274;49.874;9.154;2022-12-11T05:56:24;99869.88;;;-1.14;95.32
71465;BME280;59274;49.874;9.154;2022-12-11T05:58:50;99869.25;;;-1.11;94.98
71465;BME280;59274;49.874;9.154;2022-12-11T06:01:25;99875.69;;;-1.12;95.48
71465;BME280;59274;49.874;9.154;2022-12-11T06:03:53;99874.09;;;-1.13;96.01
71465;BME280;59274;49.874;9.154;2022-12-11T06:06:19;99877.88;;;-1.14;96.93
71465;BME280;59274;49.874;9.154;2022-12-11T06:08:45;99873.50;;;-1.10;96.05
71465;BME280;59274;49.874;9.154;2022-12-11T06:11:11;99876.34;;;-1.06;95.95
71465;BME280;59274;49.874;9.154;2022-12-11T06:13:40;99868.09;;;-1.19;95.22
71465;BME280;59274;49.874;9.154;2022-12-11T06:16:06;99863.44;;;-1.13;95.68
71465;BME280;59274;49.874;9.154;2022-12-11T06:18:41;99866.47;;;-1.06;95.65
71465;BME280;59274;49.874;9.154;2022-12-11T06:21:16;99867.88;;;-1.08;95.32
71465;BME280;59274;49.874;9.154;2022-12-11T06:23:42;99866.00;;;-1.08;95.16
71465;BME280;59274;49.874;9.154;2022-12-11T06:26:09;99873.00;;;-1.12;95.75
71465;BME280;59274;49.874;9.154;2022-12-11T06:28:35;99862.47;;;-1.17;95.84
71465;BME280;59274;49.874;9.154;2022-12-11T06:31:01;99865.69;;;-1.06;95.88
71465;BME280;59274;49.874;9.154;2022-12-11T06:33:26;99854.38;;;-1.12;96.34
71465;BME280;59274;49.874;9.154;2022-12-11T06:35:52;99851.97;;;-1.22;97.13
71465;BME280;59274;49.874;9.154;2022-12-11T06:38:18;99845.34;;;-1.25;97.00
71465;BME280;59274;49.874;9.154;2022-12-11T06:40:44;99855.59;;;-1.18;97.13
71465;BME280;59274;49.874;9.154;2022-12-11T06:43:10;99845.22;;;-1.20;97.20
71465;BME280;59274;49.874;9.154;2022-12-11T06:45:36;99850.25;;;-1.18;97.12
71465;BME280;59274;49.874;9.154;2022-12-11T06:48:02;99853.91;;;-1.14;96.88
71465;BME280;59274;49.874;9.154;2022-12-11T06:50:28;99850.13;;;-1.13;96.92
71465;BME280;59274;49.874;9.154;2022-12-11T06:52:55;99851.53;;;-1.15;97.34
71465;BME280;59274;49.874;9.154;2022-12-11T06:55:20;99857.94;;;-1.16;96.28
71465;BME280;59274;49.874;9.154;2022-12-11T06:57:46;99844.50;;;-1.34;96.55
71465;BME280;59274;49.874;9.154;2022-12-11T07:00:11;99840.09;;;-1.38;96.65
71465;BME280;59274;49.874;9.154;2022-12-11T07:02:37;99844.50;;;-1.34;97.06
71465;BME280;59274;49.874;9.154;2022-12-11T07:05:03;99836.63;;;-1.39;97.61
71465;BME280;59274;49.874;9.154;2022-12-11T07:07:28;99834.22;;;-1.27;97.62
71465;BME280;59274;49.874;9.154;2022-12-11T07:09:54;99837.66;;;-1.26;98.06
71465;BME280;59274;49.874;9.154;2022-12-11T07:12:20;99833.91;;;-1.25;98.05
71465;BME280;59274;49.874;9.154;2022-12-11T07:14:45;99846.28;;;-1.29;98.18
71465;BME280;59274;49.874;9.154;2022-12-11T07:17:11;99848.00;;;-1.25;98.01
71465;BME280;59274;49.874;9.154;2022-12-11T07:19:36;99853.22;;;-1.20;97.44
71465;BME280;59274;49.874;9.154;2022-12-11T07:22:02;99851.81;;;-1.17;96.69
71465;BME280;59274;49.874;9.154;2022-12-11T07:24:27;99849.47;;;-1.19;96.61
71465;BME280;59274;49.874;9.154;2022-12-11T07:26:52;99852.84;;;-1.27;96.67
71465;BME280;59274;49.874;9.154;2022-12-11T07:29:18;99854.84;;;-1.32;97.23
71465;BME280;59274;49.874;9.154;2022-12-11T07:31:43;99852.69;;;-1.30;97.35
71465;BME280;59274;49.874;9.154;2022-12-11T07:34:11;99858.50;;;-1.28;97.36
71465;BME280;59274;49.874;9.154;2022-12-11T07:36:36;99864.28;;;-1.26;97.22
71465;BME280;59274;49.874;9.154;2022-12-11T07:39:02;99858.66;;;-1.25;96.45
71465;BME280;59274;49.874;9.154;2022-12-11T07:41:28;99866.66;;;-1.25;97.27
71465;BME280;59274;49.874;9.154;2022-12-11T07:43:54;99870.91;;;-1.24;97.22
71465;BME280;59274;49.874;9.154;2022-12-11T07:46:22;99869.25;;;-1.33;97.65
71465;BME280;59274;49.874;9.154;2022-12-11T07:48:48;99862.59;;;-1.44;98.09
71465;BME280;59274;49.874;9.154;2022-12-11T07:53:44;99864.09;;;-1.52;99.04
71465;BME280;59274;49.874;9.154;2022-12-11T07:56:14;99873.00;;;-1.34;98.92
71465;BME280;59274;49.874;9.154;2022-12-11T07:58:40;99875.16;;;-1.23;98.08
71465;BME280;59274;49.874;9.154;2022-12-11T08:01:10;99880.03;;;-1.16;97.51
71465;BME280;59274;49.874;9.154;2022-12-11T08:03:36;99879.00;;;-1.06;96.56
71465;BME280;59274;49.874;9.154;2022-12-11T08:06:01;99884.69;;;-0.99;96.28
71465;BME280;59274;49.874;9.154;2022-12-11T08:08:27;99880.34;;;-0.95;96.48
71465;BME280;59274;49.874;9.154;2022-12-11T08:10:52;99882.38;;;-0.92;96.21
71465;BME280;59274;49.874;9.154;2022-12-11T08:13:18;99872.22;;;-0.90;95.98
71465;BME280;59274;49.874;9.154;2022-12-11T08:15:43;99874.75;;;-0.85;96.03
71465;BME280;59274;49.874;9.154;2022-12-11T08:18:08;99883.22;;;-0.83;95.92
71465;BME280;59274;49.874;9.154;2022-12-11T08:20:36;99879.09;;;-0.67;96.16
71465;BME280;59274;49.874;9.154;2022-12-11T08:23:02;99877.09;;;-0.84;95.94
71465;BME280;59274;49.874;9.154;2022-12-11T08:25:28;99874.00;;;-0.77;96.10
71465;BME280;59274;49.874;9.154;2022-12-11T08:27:53;99886.31;;;-0.90;95.21
71465;BME280;59274;49.874;9.154;2022-12-11T08:30:19;99882.88;;;-0.90;95.46
71465;BME280;59274;49.874;9.154;2022-12-11T08:32:44;99886.94;;;-0.93;96.79
71465;BME280;59274;49.874;9.154;2022-12-11T08:35:09;99884.31;;;-1.06;96.39
71465;BME280;59274;49.874;9.154;2022-12-11T08:37:35;99880.31;;;-1.40;97.49
71465;BME280;59274;49.874;9.154;2022-12-11T08:40:00;99892.13;;;-1.32;98.02
71465;BME280;59274;49.874;9.154;2022-12-11T08:42:26;99883.31;;;-1.19;98.33
71465;BME280;59274;49.874;9.154;2022-12-11T08:44:51;99886.09;;;-1.02;98.27
71465;BME280;59274;49.874;9.154;2022-12-11T08:47:17;99882.78;;;-1.07;97.13
71465;BME280;59274;49.874;9.154;2022-12-11T08:49:42;99883.06;;;-1.09;97.66
71465;BME280;59274;49.874;9.154;2022-12-11T08:52:08;99882.34;;;-1.01;98.33
71465;BME280;59274;49.874;9.154;2022-12-11T08:54:36;99878.47;;;-1.17;97.72
71465;BME280;59274;49.874;9.154;2022-12-11T08:57:01;99876.34;;;-1.06;98.23
71465;BME280;59274;49.874;9.154;2022-12-11T08:59:27;99884.88;;;-1.18;97.75
71465;BME280;59274;49.874;9.154;2022-12-11T09:01:54;99879.31;;;-1.30;98.53
71465;BME280;59274;49.874;9.154;2022-12-11T09:04:19;99876.47;;;-1.11;99.09
71465;BME280;59274;49.874;9.154;2022-12-11T09:06:45;99883.59;;;-0.98;98.99
71465;BME280;59274;49.874;9.154;2022-12-11T09:09:10;99882.88;;;-0.90;97.62
71465;BME280;59274;49.874;9.154;2022-12-11T09:11:36;99886.53;;;-0.86;96.83
71465;BME280;59274;49.874;9.154;2022-12-11T09:14:02;99872.75;;;-0.80;97.08
71465;BME280;59274;49.874;9.154;2022-12-11T09:16:28;99877.09;;;-0.84;96.51
71465;BME280;59274;49.874;9.154;2022-12-11T09:18:56;99874.88;;;-0.90;96.77
71465;BME280;59274;49.874;9.154;2022-12-11T09:21:24;99878.16;;;-0.93;97.27
71465;BME280;59274;49.874;9.154;2022-12-11T09:23:56;99884.28;;;-0.93;97.31
71465;BME280;59274;49.874;9.154;2022-12-11T09:26:22;99884.28;;;-0.93;97.08
71465;BME280;59274;49.874;9.154;2022-12-11T09:28:48;99885.28;;;-0.80;97.35
71465;BME280;59274;49.874;9.154;2022-12-11T09:31:20;99881.84;;;-0.81;97.04
71465;BME280;59274;49.874;9.154;2022-12-11T09:33:48;99889.03;;;-0.81;96.53
71465;BME280;59274;49.874;9.154;2022-12-11T09:36:14;99887.34;;;-0.77;96.95
71465;BME280;59274;49.874;9.154;2022-12-11T09:38:39;99882.94;;;-0.82;96.93
71465;BME280;59274;49.874;9.154;2022-12-11T09:44:04;99891.28;;;-0.74;96.07
71465;BME280;59274;49.874;9.154;2022-12-11T09:46:33;99890.63;;;-0.80;96.73
71465;BME280;59274;49.874;9.154;2022-12-11T09:49:01;99895.81;;;-0.75;96.25
71465;BME280;59274;49.874;9.154;2022-12-11T09:51:35;99892.00;;;-0.83;95.92
71465;BME280;59274;49.874;9.154;2022-12-11T09:54:05;99888.31;;;-0.73;97.38
71465;BME280;59274;49.874;9.154;2022-12-11T09:56:33;99888.63;;;-0.74;96.64
71465;BME280;59274;49.874;9.154;2022-12-11T09:59:22;99891.84;;;-0.86;97.09
71465;BME280;59274;49.874;9.154;2022-12-11T10:07:42;99868.47;;;-0.89;97.66
71465;BME280;59274;49.874;9.154;2022-12-11T10:16:04;99860.81;;;-0.82;96.58
71465;BME280;59274;49.874;9.154;2022-12-11T10:18:36;99862.78;;;-0.96;97.21
71465;BME280;59274;49.874;9.154;2022-12-11T10:21:02;99872.06;;;-0.85;97.11
71465;BME280;59274;49.874;9.154;2022-12-11T10:23:33;99865.97;;;-0.86;97.24
71465;BME280;59274;49.874;9.154;2022-12-11T10:26:15;99866.78;;;-0.76;97.95
71465;BME280;59274;49.874;9.154;2022-12-11T10:28:41;99861.72;;;-0.56;97.38
71465;BME280;59274;49.874;9.154;2022-12-11T10:31:16;99863.47;;;-0.51;95.56
71465;BME280;59274;49.874;9.154;2022-12-11T10:34:00;99858.00;;;-0.46;96.13
71465;BME280;59274;49.874;9.154;2022-12-11T10:36:33;99856.78;;;-0.40;95.03
71465;BME280;59274;49.874;9.154;2022-12-11T10:39:00;99846.94;;;-0.62;94.73
71465;BME280;59274;49.874;9.154;2022-12-11T10:41:36;99852.66;;;-0.46;95.31
71465;BME280;59274;49.874;9.154;2022-12-11T10:44:20;99848.78;;;-0.40;95.80
71465;BME280;59274;49.874;9.154;2022-12-11T10:46:47;99839.06;;;-0.27;94.64
71465;BME280;59274;49.874;9.154;2022-12-11T10:49:24;99836.59;;;-0.24;94.68
71465;BME280;59274;49.874;9.154;2022-12-11T10:51:51;99836.91;;;-0.17;94.60
71465;BME280;59274;49.874;9.154;2022-12-11T10:54:41;99834.88;;;-0.11;93.74
71465;BME280;59274;49.874;9.154;2022-12-11T10:57:09;99835.81;;;-0.07;94.18
71465;BME280;59274;49.874;9.154;2022-12-11T10:59:45;99831.91;;;-0.10;93.82
71465;BME280;59274;49.874;9.154;2022-12-11T11:02:35;99838.66;;;-0.12;94.12
71465;BME280;59274;49.874;9.154;2022-12-11T11:05:26;99839.59;;;-0.17;93.87
71465;BME280;59274;49.874;9.154;2022-12-11T11:08:15;99832.66;;;-0.26;94.10
71465;BME280;59274;49.874;9.154;2022-12-11T11:11:01;99825.13;;;-0.24;95.29
71465;BME280;59274;49.874;9.154;2022-12-11T11:13:28;99824.56;;;0.05;94.62
71465;BME280;59274;49.874;9.154;2022-12-11T11:16:06;99821.88;;;0.05;93.23
71465;BME280;59274;49.874;9.154;2022-12-11T11:18:32;99826.91;;;-0.03;93.19
71465;BME280;59274;49.874;9.154;2022-12-11T11:20:59;99818.25;;;0.00;93.84
71465;BME280;59274;49.874;9.154;2022-12-11T11:23:26;99819.81;;;-0.07;93.71
71465;BME280;59274;49.874;9.154;2022-12-11T11:25:59;99816.81;;;-0.14;93.84
71465;BME280;59274;49.874;9.154;2022-12-11T11:28:34;99814.31;;;-0.19;93.94
71465;BME280;59274;49.874;9.154;2022-12-11T11:31:06;99813.66;;;-0.25;93.31
71465;BME280;59274;49.874;9.154;2022-12-11T11:33:35;99806.16;;;-0.23;93.96
71465;BME280;59274;49.874;9.154;2022-12-11T11:36:06;99804.50;;;-0.41;93.28
71465;BME280;59274;49.874;9.154;2022-12-11T11:44:09;99797.50;;;-0.20;93.97
71465;BME280;59274;49.874;9.154;2022-12-11T11:46:46;99799.88;;;-0.18;93.96
71465;BME280;59274;49.874;9.154;2022-12-11T11:49:19;99797.22;;;-0.10;93.50
71465;BME280;59274;49.874;9.154;2022-12-11T11:52:20;99791.72;;;-0.22;93.22
71465;BME280;59274;49.874;9.154;2022-12-11T11:54:49;99788.28;;;-0.05;93.40
71465;BME280;59274;49.874;9.154;2022-12-11T11:57:42;99788.88;;;-0.17;93.05
71465;BME280;59274;49.874;9.154;2022-12-11T12:00:21;99794.53;;;-0.18;92.75
71465;BME280;59274;49.874;9.154;2022-12-11T12:02:50;99795.13;;;-0.21;93.14
71465;BME280;59274;49.874;9.154;2022-12-11T12:05:26;99789.81;;;-0.21;93.83
71465;BME280;59274;49.874;9.154;2022-12-11T12:10:46;99785.91;;;0.02;92.26
71465;BME280;59274;49.874;9.154;2022-12-11T12:14:34;99774.63;;;0.14;92.83
71465;BME280;59274;49.874;9.154;2022-12-11T12:16:54;99783.25;;;0.02;92.28
71465;BME280;59274;49.874;9.154;2022-12-11T12:19:40;99783.13;;;0.07;93.70
71465;BME280;59274;49.874;9.154;2022-12-11T12:27:22;99786.84;;;-0.11;91.70
71465;BME280;59274;49.874;9.154;2022-12-11T12:30:08;99782.78;;;-0.09;92.90
71465;BME280;59274;49.874;9.154;2022-12-11T12:35:36;99774.16;;;0.03;92.69
71465;BME280;59274;49.874;9.154;2022-12-11T12:38:20;99778.69;;;0.03;91.92
71465;BME280;59274;49.874;9.154;2022-12-11T12:41:01;99774.63;;;0.05;90.89
71465;BME280;59274;49.874;9.154;2022-12-11T12:49:02;99772.56;;;0.02;92.13
71465;BME280;59274;49.874;9.154;2022-12-11T12:51:29;99771.94;;;-0.04;91.44
71465;BME280;59274;49.874;9.154;2022-12-11T12:53:56;99768.81;;;-0.06;91.22
71465;BME280;59274;49.874;9.154;2022-12-11T12:56:25;99762.22;;;-0.08;90.70
71465;BME280;59274;49.874;9.154;2022-12-11T12:58:51;99757.53;;;0.06;90.98
71465;BME280;59274;49.874;9.154;2022-12-11T13:01:20;99754.53;;;0.16;90.65
71465;BME280;59274;49.874;9.154;2022-12-11T13:04:02;99765.19;;;0.08;92.09
71465;BME280;59274;49.874;9.154;2022-12-11T13:06:33;99761.44;;;0.09;92.72
71465;BME280;59274;49.874;9.154;2022-12-11T13:11:45;99761.59;;;0.12;92.53
71465;BME280;59274;49.874;9.154;2022-12-11T13:16:44;99760.50;;;0.05;92.78
71465;BME280;59274;49.874;9.154;2022-12-11T13:22:23;99764.59;;;0.19;93.05
71465;BME280;59274;49.874;9.154;2022-12-11T13:27:38;99767.41;;;0.23;90.58
71465;BME280;59274;49.874;9.154;2022-12-11T13:30:21;99759.56;;;0.18;89.78
71465;BME280;59274;49.874;9.154;2022-12-11T13:35:19;99773.34;;;0.37;90.51
71465;BME280;59274;49.874;9.154;2022-12-11T13:37:45;99775.09;;;0.33;89.55
71465;BME280;59274;49.874;9.154;2022-12-11T13:42:53;99778.22;;;0.44;88.87
71465;BME280;59274;49.874;9.154;2022-12-11T13:47:54;99775.41;;;0.40;89.01
71465;BME280;59274;49.874;9.154;2022-12-11T13:50:25;99777.13;;;0.45;87.37
71465;BME280;59274;49.874;9.154;2022-12-11T13:52:58;99781.97;;;0.51;88.62
71465;BME280;59274;49.874;9.154;2022-12-11T13:55:30;99783.25;;;0.54;87.87
71465;BME280;59274;49.874;9.154;2022-12-11T13:57:56;99775.56;;;0.35;87.97
71465;BME280;59274;49.874;9.154;2022-12-11T14:00:27;99780.88;;;0.44;87.45
71465;BME280;59274;49.874;9.154;2022-12-11T14:02:55;99774.63;;;0.48;87.10
71465;BME280;59274;49.874;9.154;2022-12-11T14:05:22;99777.13;;;0.45;87.40
71465;BME280;59274;49.874;9.154;2022-12-11T14:07:56;99778.69;;;0.46;86.21
71465;BME280;59274;49.874;9.154;2022-12-11T14:10:26;99775.88;;;0.42;85.96
71465;BME280;59274;49.874;9.154;2022-12-11T14:13:02;99785.31;;;0.48;86.71
71465;BME280;59274;49.874;9.154;2022-12-11T14:15:30;99788.59;;;0.54;86.26
71465;BME280;59274;49.874;9.154;2022-12-11T14:17:57;99779.19;;;0.39;85.95
71465;BME280;59274;49.874;9.154;2022-12-11T14:20:32;99782.16;;;0.55;85.39
71465;BME280;59274;49.874;9.154;2022-12-11T14:23:16;99783.72;;;0.56;85.16
71465;BME280;59274;49.874;9.154;2022-12-11T14:25:53;99773.47;;;0.66;85.30
71465;BME280;59274;49.874;9.154;2022-12-11T14:28:20;99771.59;;;0.75;84.42
71465;BME280;59274;49.874;9.154;2022-12-11T14:30:49;99774.09;;;0.72;83.93
71465;BME280;59274;49.874;9.154;2022-12-11T14:33:18;99774.25;;;0.75;84.04